createdAt,value
2022-09-16T00:00:36.308Z,7.87
2022-09-16T00:03:03.830Z,8.47
2022-09-16T00:05:31.529Z,10.70
2022-09-16T00:07:58.915Z,15.03
2022-09-16T00:10:26.370Z,8.23
2022-09-16T00:12:53.812Z,10.03
2022-09-16T00:15:21.196Z,9.43
2022-09-16T00:17:49.470Z,12.70
2022-09-16T00:20:16.948Z,10.37
2022-09-16T00:22:44.391Z,10.07
2022-09-16T00:25:11.782Z,8.87
2022-09-16T00:27:39.179Z,16.30
2022-09-16T00:30:06.979Z,9.23
2022-09-16T00:32:34.403Z,15.87
2022-09-16T00:35:01.778Z,15.13
2022-09-16T00:37:30.955Z,10.13
2022-09-16T00:39:58.410Z,18.03
2022-09-16T00:42:25.963Z,10.93
2022-09-16T00:45:04.432Z,14.33
2022-09-16T00:47:33.672Z,12.97
2022-09-16T00:50:04.635Z,15.93
2022-09-16T00:52:33.099Z,12.30
2022-09-16T00:55:02.582Z,16.10
2022-09-16T00:57:30.284Z,15.43
2022-09-16T00:59:58.273Z,14.47
2022-09-16T01:02:25.930Z,15.87
2022-09-16T01:05:05.614Z,9.13
2022-09-16T01:07:38.693Z,9.67
2022-09-16T01:10:06.374Z,12.90
2022-09-16T01:12:34.682Z,14.10
2022-09-16T01:15:02.824Z,15.07
2022-09-16T01:17:50.142Z,12.93
2022-09-16T01:20:50.028Z,14.97
2022-09-16T01:23:37.730Z,18.53
2022-09-16T01:26:35.022Z,16.93
2022-09-16T01:29:28.863Z,17.00
2022-09-16T01:32:19.286Z,14.87
2022-09-16T01:35:04.882Z,14.27
2022-09-16T01:37:54.169Z,14.93
2022-09-16T01:40:33.171Z,11.30
2022-09-16T01:43:29.829Z,11.97
2022-09-16T01:45:59.751Z,13.97
2022-09-16T01:48:53.981Z,17.37
2022-09-16T01:51:40.120Z,15.00
2022-09-16T01:54:11.152Z,20.13
2022-09-16T01:56:52.803Z,25.97
2022-09-16T01:59:23.069Z,20.03
2022-09-16T02:01:56.369Z,16.70
2022-09-16T02:04:26.180Z,14.13
2022-09-16T02:06:54.864Z,18.27
2022-09-16T02:09:25.498Z,13.27
2022-09-16T02:11:54.682Z,14.87
2022-09-16T02:14:25.063Z,15.97
2022-09-16T02:17:12.682Z,14.27
2022-09-16T02:19:45.509Z,17.27
2022-09-16T02:22:15.050Z,15.23
2022-09-16T02:24:44.290Z,14.43
2022-09-16T02:27:13.631Z,12.20
2022-09-16T02:29:45.363Z,15.43
2022-09-16T02:32:13.141Z,14.30
2022-09-16T02:34:45.078Z,14.53
2022-09-16T02:37:32.715Z,11.57
2022-09-16T02:40:02.499Z,12.50
2022-09-16T02:42:30.286Z,12.27
2022-09-16T02:44:58.405Z,14.17
2022-09-16T02:47:43.378Z,13.00
2022-09-16T02:50:20.366Z,18.43
2022-09-16T02:53:02.152Z,12.93
2022-09-16T02:55:41.570Z,14.03
2022-09-16T02:58:10.893Z,17.50
2022-09-16T03:00:41.485Z,16.07
2022-09-16T03:03:09.711Z,11.80
2022-09-16T03:05:57.103Z,15.47
2022-09-16T03:08:24.550Z,15.13
2022-09-16T03:10:53.859Z,13.97
2022-09-16T03:13:29.633Z,12.77
2022-09-16T03:16:29.688Z,13.40
2022-09-16T03:19:19.828Z,16.03
2022-09-16T03:22:01.661Z,16.13
2022-09-16T03:24:43.286Z,10.73
2022-09-16T03:27:17.503Z,12.47
2022-09-16T03:29:50.838Z,18.00
2022-09-16T03:32:23.404Z,12.43
2022-09-16T03:34:58.126Z,12.47
2022-09-16T03:37:25.980Z,13.63
2022-09-16T03:39:55.564Z,11.40
2022-09-16T03:42:23.230Z,9.40
2022-09-16T03:44:50.641Z,12.27
2022-09-16T03:47:18.470Z,10.83
2022-09-16T03:49:45.977Z,14.73
2022-09-16T03:52:13.320Z,13.87
2022-09-16T03:54:40.903Z,10.57
2022-09-16T03:57:08.271Z,15.83
2022-09-16T03:59:35.662Z,12.43
2022-09-16T04:02:03.133Z,13.23
2022-09-16T04:04:30.532Z,13.47
2022-09-16T04:06:57.930Z,19.43
2022-09-16T04:09:25.324Z,15.93
2022-09-16T04:11:52.679Z,13.77
2022-09-16T04:14:20.481Z,11.30
2022-09-16T04:16:47.825Z,11.57
2022-09-16T04:19:15.300Z,12.67
2022-09-16T04:21:43.124Z,8.67
2022-09-16T04:24:13.238Z,13.30
2022-09-16T04:26:41.478Z,11.47
2022-09-16T04:29:08.998Z,14.30
2022-09-16T04:31:36.447Z,12.67
2022-09-16T04:34:04.277Z,11.17
2022-09-16T04:36:32.188Z,14.17
2022-09-16T04:38:59.595Z,15.80
2022-09-16T04:41:27.666Z,13.70
2022-09-16T04:43:56.362Z,13.73
2022-09-16T04:46:24.735Z,14.20
2022-09-16T04:48:52.927Z,12.30
2022-09-16T04:51:20.598Z,13.30
2022-09-16T04:53:49.173Z,13.70
2022-09-16T04:56:17.780Z,15.63
2022-09-16T04:58:49.486Z,18.77
2022-09-16T05:01:21.434Z,15.60
2022-09-16T05:03:50.626Z,16.93
2022-09-16T05:06:22.351Z,15.73
2022-09-16T05:08:50.159Z,18.53
2022-09-16T05:11:19.095Z,19.23
2022-09-16T05:13:46.804Z,17.60
2022-09-16T05:16:18.176Z,16.43
2022-09-16T05:18:46.473Z,17.03
2022-09-16T05:21:15.587Z,15.60
2022-09-16T05:23:46.725Z,13.50
2022-09-16T05:26:18.937Z,15.77
2022-09-16T05:28:46.744Z,13.60
2022-09-16T05:31:18.490Z,21.07
2022-09-16T05:33:54.978Z,17.53
2022-09-16T05:36:22.839Z,19.67
2022-09-16T05:39:10.924Z,17.50
2022-09-16T05:41:37.996Z,10.80
2022-09-16T05:44:08.817Z,13.93
2022-09-16T05:46:36.569Z,12.20
2022-09-16T05:49:04.258Z,14.83
2022-09-16T05:51:31.648Z,11.63
2022-09-16T05:53:59.602Z,13.70
2022-09-16T05:56:28.026Z,15.77
2022-09-16T05:58:56.177Z,12.47
2022-09-16T06:01:25.666Z,15.57
2022-09-16T06:03:53.430Z,20.27
2022-09-16T06:06:34.427Z,16.87
2022-09-16T06:09:05.154Z,18.60
2022-09-16T06:11:32.729Z,15.10
2022-09-16T06:14:01.698Z,14.60
2022-09-16T06:16:33.069Z,14.23
2022-09-16T06:19:01.605Z,17.20
2022-09-16T06:21:29.442Z,18.37
2022-09-16T06:23:57.221Z,21.43
2022-09-16T06:26:25.508Z,20.63
2022-09-16T06:28:53.102Z,20.40
2022-09-16T06:31:27.480Z,15.63
2022-09-16T06:33:55.667Z,19.07
2022-09-16T06:36:24.192Z,22.00
2022-09-16T06:38:51.864Z,21.40
2022-09-16T06:41:20.200Z,19.53
2022-09-16T06:43:48.123Z,17.00
2022-09-16T06:46:17.074Z,11.77
2022-09-16T06:48:45.417Z,14.70
2022-09-16T06:51:14.790Z,18.73
2022-09-16T06:53:42.258Z,19.10
2022-09-16T06:56:13.853Z,18.00
2022-09-16T06:58:42.316Z,13.13
2022-09-16T07:01:11.110Z,12.63
2022-09-16T07:03:39.334Z,13.17
2022-09-16T07:06:07.857Z,15.60
2022-09-16T07:08:36.090Z,11.90
2022-09-16T07:11:05.263Z,20.90
2022-09-16T07:13:32.966Z,11.40
2022-09-16T07:16:14.956Z,10.27
2022-09-16T07:18:43.043Z,9.20
2022-09-16T07:21:12.210Z,10.23
2022-09-16T07:23:40.237Z,11.90
2022-09-16T07:26:09.371Z,15.90
2022-09-16T07:28:37.010Z,13.60
2022-09-16T07:31:05.353Z,10.37
2022-09-16T07:33:33.551Z,9.23
2022-09-16T07:36:01.314Z,8.30
2022-09-16T07:38:30.230Z,11.37
2022-09-16T07:40:57.762Z,8.93
2022-09-16T07:43:25.245Z,9.77
2022-09-16T07:45:59.517Z,10.00
2022-09-16T07:48:30.172Z,7.80
2022-09-16T07:51:02.337Z,11.53
2022-09-16T07:53:30.544Z,7.87
2022-09-16T07:56:09.588Z,11.63
2022-09-16T07:58:38.665Z,7.87
2022-09-16T08:01:07.621Z,11.70
2022-09-16T08:03:39.217Z,7.43
2022-09-16T08:06:08.821Z,8.40
2022-09-16T08:08:36.506Z,6.70
2022-09-16T08:11:04.369Z,7.37
2022-09-16T08:13:33.120Z,5.47
2022-09-16T08:16:01.943Z,9.27
2022-09-16T08:18:29.541Z,7.10
2022-09-16T08:20:57.077Z,7.57
2022-09-16T08:23:24.469Z,7.13
2022-09-16T08:26:01.471Z,5.60
2022-09-16T08:28:39.881Z,6.20
2022-09-16T08:31:17.762Z,6.40
2022-09-16T08:33:45.525Z,10.73
2022-09-16T08:36:15.483Z,8.00
2022-09-16T08:38:44.018Z,8.37
2022-09-16T08:41:37.767Z,9.70
2022-09-16T08:44:31.246Z,8.97
2022-09-16T08:47:43.939Z,11.60
2022-09-16T08:50:14.199Z,12.67
2022-09-16T08:52:43.420Z,8.03
2022-09-16T08:55:34.613Z,8.67
2022-09-16T08:58:41.956Z,7.13
2022-09-16T09:01:45.119Z,6.83
2022-09-16T09:04:13.303Z,9.70
2022-09-16T09:06:50.589Z,8.67
2022-09-16T09:09:40.653Z,5.03
2022-09-16T09:12:35.119Z,8.93
2022-09-16T09:15:30.606Z,8.63
2022-09-16T09:18:20.837Z,7.13
2022-09-16T09:21:20.533Z,7.97
2022-09-16T09:23:58.974Z,9.40
2022-09-16T09:26:52.514Z,8.33
2022-09-16T09:29:36.143Z,5.37
2022-09-16T09:32:26.870Z,10.17
2022-09-16T09:35:03.513Z,7.40
2022-09-16T09:38:00.390Z,5.13
2022-09-16T09:40:41.253Z,7.03
2022-09-16T09:43:34.519Z,4.93
2022-09-16T09:46:18.006Z,5.73
2022-09-16T09:49:04.056Z,8.60
2022-09-16T09:51:34.102Z,4.43
2022-09-16T09:54:21.806Z,5.03
2022-09-16T09:56:50.241Z,5.93
2022-09-16T09:59:36.822Z,13.47
2022-09-16T10:02:04.502Z,7.67
2022-09-16T10:04:37.487Z,8.47
2022-09-16T10:07:05.671Z,5.80
2022-09-16T10:09:34.388Z,8.80
2022-09-16T10:12:02.112Z,5.57
2022-09-16T10:14:34.653Z,6.57
2022-09-16T10:17:04.841Z,7.10
2022-09-16T10:19:48.919Z,5.37
2022-09-16T10:22:29.907Z,9.80
2022-09-16T10:25:21.883Z,7.07
2022-09-16T10:28:06.855Z,5.67
2022-09-16T10:30:56.490Z,6.43
2022-09-16T10:33:28.321Z,5.87
2022-09-16T10:36:00.815Z,8.20
2022-09-16T10:38:39.921Z,6.33
2022-09-16T10:41:28.985Z,7.03
2022-09-16T10:44:17.204Z,10.40
2022-09-16T10:47:22.086Z,7.87
2022-09-16T10:49:52.283Z,7.93
2022-09-16T10:52:21.847Z,7.43
2022-09-16T10:54:49.427Z,8.67
2022-09-16T10:57:24.430Z,6.97
2022-09-16T11:00:11.553Z,6.93
2022-09-16T11:02:57.889Z,6.73
2022-09-16T11:05:44.907Z,6.27
2022-09-16T11:08:35.903Z,8.07
2022-09-16T11:12:06.429Z,8.80
2022-09-16T11:14:48.958Z,7.93
2022-09-16T11:17:36.730Z,8.77
2022-09-16T11:20:30.466Z,5.90
2022-09-16T11:23:12.632Z,4.87
2022-09-16T11:25:58.065Z,8.03
2022-09-16T11:28:58.041Z,7.03
2022-09-16T11:48:17.883Z,5.07
2022-09-16T11:51:06.672Z,5.27
2022-09-16T11:53:50.298Z,7.03
2022-09-16T12:03:10.637Z,5.30
2022-09-16T12:05:53.534Z,5.30
2022-09-16T12:08:49.201Z,5.60
2022-09-16T12:11:24.509Z,5.97
2022-09-16T12:14:06.153Z,4.97
2022-09-16T12:16:48.500Z,4.30
2022-09-16T12:19:43.603Z,6.83
2022-09-16T12:22:20.916Z,10.07
2022-09-16T12:25:17.513Z,5.70
2022-09-16T12:27:55.103Z,9.57
2022-09-16T12:30:25.551Z,6.87
2022-09-16T12:33:17.338Z,4.80
2022-09-16T12:36:03.802Z,5.80
2022-09-16T12:38:31.206Z,8.30
2022-09-16T12:41:56.934Z,5.43
2022-09-16T12:44:56.904Z,7.57
2022-09-16T12:48:00.033Z,4.77
2022-09-16T12:50:50.609Z,5.77
2022-09-16T12:53:53.431Z,4.93
2022-09-16T12:56:53.236Z,4.47
2022-09-16T12:59:44.400Z,3.80
2022-09-16T13:02:16.669Z,7.17
2022-09-16T13:04:46.204Z,6.00
2022-09-16T13:10:26.427Z,3.77
2022-09-16T13:12:59.835Z,6.17
2022-09-16T13:15:29.632Z,6.13
2022-09-16T13:17:57.383Z,15.87
2022-09-16T13:20:28.753Z,13.03
2022-09-16T13:23:08.903Z,5.90
2022-09-16T13:25:46.805Z,5.50
2022-09-16T13:28:28.367Z,4.10
2022-09-16T13:30:56.093Z,5.13
2022-09-16T13:33:29.039Z,2.97
2022-09-16T13:36:17.211Z,4.73
2022-09-16T13:38:52.376Z,5.47
2022-09-16T13:41:52.033Z,4.57
2022-09-16T13:44:40.499Z,5.27
2022-09-16T13:47:18.328Z,2.50
2022-09-16T13:49:56.713Z,3.93
2022-09-16T13:52:34.635Z,2.50
2022-09-16T13:55:10.576Z,3.30
2022-09-16T13:57:50.537Z,2.13
2022-09-16T14:00:41.008Z,5.70
2022-09-16T14:03:47.740Z,6.23
2022-09-16T14:06:35.472Z,2.97
2022-09-16T14:09:26.430Z,2.13
2022-09-16T14:12:07.269Z,5.17
2022-09-16T14:14:47.077Z,2.20
2022-09-16T14:17:17.366Z,4.13
2022-09-16T14:19:46.970Z,4.20
2022-09-16T14:22:17.105Z,2.80
2022-09-16T14:24:45.439Z,2.00
2022-09-16T14:27:43.443Z,2.13
2022-09-16T14:30:18.109Z,2.33
2022-09-16T14:32:46.111Z,4.97
2022-09-16T14:35:19.638Z,2.73
2022-09-16T14:37:48.611Z,3.20
2022-09-16T14:40:17.440Z,3.00
2022-09-16T14:43:05.222Z,2.50
2022-09-16T14:45:33.882Z,3.77
2022-09-16T14:48:02.762Z,5.30
2022-09-16T14:50:31.924Z,2.17
2022-09-16T14:53:00.862Z,6.73
2022-09-16T14:55:36.188Z,3.50
2022-09-16T14:58:04.196Z,3.30
2022-09-16T15:00:37.385Z,5.40
2022-09-16T15:03:10.621Z,2.93
2022-09-16T15:05:39.365Z,4.23
2022-09-16T15:08:26.132Z,4.10
2022-09-16T15:11:02.124Z,3.10
2022-09-16T15:13:31.310Z,7.33
2022-09-16T15:16:00.940Z,3.97
2022-09-16T15:18:33.266Z,6.07
2022-09-16T15:21:04.088Z,4.37
2022-09-16T15:23:31.844Z,6.53
2022-09-16T15:26:04.500Z,4.93
2022-09-16T15:28:31.991Z,5.40
2022-09-16T15:30:59.703Z,4.40
2022-09-16T15:33:42.705Z,3.57
2022-09-16T15:36:28.717Z,8.67
2022-09-16T15:38:58.956Z,3.77
2022-09-16T15:41:26.515Z,3.50
2022-09-16T15:43:53.954Z,7.53
2022-09-16T15:46:24.973Z,5.17
2022-09-16T15:48:59.936Z,7.30
2022-09-16T15:51:33.637Z,5.13
2022-09-16T15:54:18.542Z,4.37
2022-09-16T15:57:05.544Z,7.13
2022-09-16T15:59:39.631Z,3.50
2022-09-16T16:02:45.483Z,4.13
2022-09-16T16:05:31.991Z,3.63
2022-09-16T16:08:00.455Z,3.47
2022-09-16T16:10:31.170Z,9.00
2022-09-16T16:13:00.540Z,3.03
2022-09-16T16:15:38.454Z,2.63
2022-09-16T16:18:07.663Z,2.13
2022-09-16T16:20:36.923Z,2.70
2022-09-16T16:23:04.564Z,1.93
2022-09-16T16:25:32.633Z,2.03
2022-09-16T16:28:00.045Z,1.80
2022-09-16T16:30:27.533Z,2.77
2022-09-16T16:32:55.207Z,1.97
2022-09-16T16:35:22.573Z,1.70
2022-09-16T16:37:49.942Z,2.83
2022-09-16T16:40:17.555Z,4.07
2022-09-16T16:42:45.262Z,6.10
2022-09-16T16:45:13.806Z,3.37
2022-09-16T16:47:41.333Z,2.90
2022-09-16T16:50:09.005Z,3.87
2022-09-16T16:52:36.463Z,4.80
2022-09-16T16:55:03.891Z,2.37
2022-09-16T16:57:31.413Z,3.10
2022-09-16T16:59:58.837Z,5.93
2022-09-16T17:02:26.436Z,4.03
2022-09-16T17:04:53.982Z,3.57
2022-09-16T17:07:26.149Z,2.53
2022-09-16T17:09:54.575Z,4.00
2022-09-16T17:12:21.933Z,4.73
2022-09-16T17:14:49.323Z,4.07
2022-09-16T17:17:16.742Z,4.80
2022-09-16T17:19:44.157Z,6.00
2022-09-16T17:22:11.918Z,2.87
2022-09-16T17:24:39.331Z,5.27
2022-09-16T17:27:06.815Z,3.33
2022-09-16T17:29:34.573Z,2.53
2022-09-16T17:32:03.345Z,5.73
2022-09-16T17:34:31.416Z,5.00
2022-09-16T17:36:58.870Z,2.77
2022-09-16T17:39:26.421Z,4.20
2022-09-16T17:41:56.646Z,4.60
2022-09-16T17:44:24.836Z,4.13
2022-09-16T17:46:52.351Z,4.53
2022-09-16T17:49:21.754Z,6.60
2022-09-16T17:51:49.595Z,2.53
2022-09-16T17:54:17.503Z,3.10
2022-09-16T17:56:44.965Z,4.17
2022-09-16T17:59:13.101Z,4.23
2022-09-16T18:01:40.899Z,3.13
2022-09-16T18:04:08.589Z,4.30
2022-09-16T18:06:40.466Z,5.07
2022-09-16T18:09:08.228Z,4.93
2022-09-16T18:11:36.009Z,2.70
2022-09-16T18:14:04.582Z,4.17
2022-09-16T18:16:32.219Z,6.83
2022-09-16T18:19:00.782Z,6.87
2022-09-16T18:21:28.713Z,3.57
2022-09-16T18:23:57.415Z,3.40
2022-09-16T18:26:24.956Z,6.97
2022-09-16T18:29:10.546Z,4.40
2022-09-16T18:31:39.289Z,4.20
2022-09-16T18:34:06.744Z,4.93
2022-09-16T18:36:35.291Z,4.60
2022-09-16T18:39:02.719Z,4.10
2022-09-16T18:41:31.391Z,3.40
2022-09-16T18:44:00.282Z,4.33
2022-09-16T18:46:29.313Z,4.67
2022-09-16T18:48:57.527Z,11.37
2022-09-16T18:51:29.236Z,6.17
2022-09-16T18:53:58.190Z,3.60
2022-09-16T18:56:26.548Z,2.57
2022-09-16T18:59:19.796Z,3.97
2022-09-16T19:01:42.915Z,3.10
2022-09-16T19:04:11.704Z,5.03
2022-09-16T19:06:40.425Z,4.30
2022-09-16T19:09:08.837Z,3.13
2022-09-16T19:11:36.842Z,4.73
2022-09-16T19:14:05.006Z,4.43
2022-09-16T19:16:35.898Z,4.93
2022-09-16T19:19:05.563Z,5.10
2022-09-16T19:21:33.285Z,10.03
2022-09-16T19:24:01.935Z,8.23
2022-09-16T19:26:32.347Z,8.30
2022-09-16T19:29:01.370Z,3.97
2022-09-16T19:31:31.504Z,7.47
2022-09-16T19:33:59.467Z,6.47
2022-09-16T19:36:28.225Z,3.83
2022-09-16T19:38:56.241Z,7.07
2022-09-16T19:41:26.298Z,8.00
2022-09-16T19:43:54.654Z,4.27
2022-09-16T19:46:22.625Z,7.50
2022-09-16T19:48:50.585Z,6.23
2022-09-16T19:51:19.267Z,3.53
2022-09-16T19:53:48.994Z,8.53
2022-09-16T19:56:17.914Z,8.20
2022-09-16T19:58:45.377Z,5.90
2022-09-16T20:01:14.837Z,6.07
2022-09-16T20:03:46.118Z,7.43
2022-09-16T20:06:15.712Z,7.53
2022-09-16T20:08:43.926Z,4.27
2022-09-16T20:11:17.402Z,9.53
2022-09-16T20:13:51.804Z,11.40
2022-09-16T20:16:19.676Z,3.67
2022-09-16T20:18:47.346Z,4.43
2022-09-16T20:21:15.889Z,4.30
2022-09-16T20:23:45.207Z,5.87
2022-09-16T20:26:15.019Z,7.73
2022-09-16T20:28:43.967Z,5.33
2022-09-16T20:31:12.601Z,6.23
2022-09-16T20:33:40.707Z,6.70
2022-09-16T20:36:14.602Z,9.30
2022-09-16T20:38:42.787Z,11.23
2022-09-16T20:41:14.741Z,9.47
2022-09-16T20:43:42.313Z,6.83
2022-09-16T20:46:13.759Z,5.33
2022-09-16T20:48:41.763Z,5.83
2022-09-16T20:51:10.270Z,4.57
2022-09-16T20:53:38.349Z,6.50
2022-09-16T20:56:06.973Z,5.40
2022-09-16T20:58:35.137Z,6.27
2022-09-16T21:01:06.393Z,6.70
2022-09-16T21:03:34.183Z,7.93
2022-09-16T21:06:03.336Z,6.87
2022-09-16T21:08:33.911Z,6.17
2022-09-16T21:11:11.428Z,7.00
2022-09-16T21:13:41.422Z,2.97
2022-09-16T21:16:10.245Z,11.20
2022-09-16T21:18:37.902Z,2.90
2022-09-16T21:21:09.842Z,5.83
2022-09-16T21:23:37.709Z,3.07
2022-09-16T21:26:10.555Z,7.93
2022-09-16T21:28:38.329Z,5.77
2022-09-16T21:31:07.134Z,3.80
2022-09-16T21:33:38.801Z,5.17
2022-09-16T21:36:07.057Z,5.93
2022-09-16T21:38:34.522Z,2.97
2022-09-16T21:41:03.826Z,4.47
2022-09-16T21:43:32.824Z,2.10
2022-09-16T21:46:00.619Z,4.17
2022-09-16T21:48:31.460Z,7.07
2022-09-16T21:51:02.813Z,3.73
2022-09-16T21:53:43.854Z,3.07
2022-09-16T21:56:18.974Z,3.50
2022-09-16T21:58:46.787Z,4.63
2022-09-16T22:01:17.317Z,3.40
2022-09-16T22:03:45.581Z,3.70
2022-09-16T22:06:14.054Z,5.23
2022-09-16T22:08:48.555Z,3.30
2022-09-16T22:11:17.231Z,4.13
2022-09-16T22:13:44.652Z,3.87
2022-09-16T22:16:17.489Z,4.57
2022-09-16T22:18:45.200Z,2.77
2022-09-16T22:21:13.663Z,2.50
2022-09-16T22:23:41.612Z,3.13
2022-09-16T22:26:10.739Z,2.73
2022-09-16T22:28:38.426Z,2.43
2022-09-16T22:31:07.098Z,3.97
2022-09-16T22:33:35.109Z,9.67
2022-09-16T22:36:03.279Z,7.20
2022-09-16T22:38:30.699Z,5.67
2022-09-16T22:41:02.044Z,3.60
2022-09-16T22:43:29.814Z,3.40
2022-09-16T22:46:04.037Z,3.13
2022-09-16T22:48:31.935Z,5.80
2022-09-16T22:51:00.074Z,7.70
2022-09-16T22:53:28.218Z,3.03
2022-09-16T22:56:03.669Z,3.93
2022-09-16T22:58:31.798Z,4.90
2022-09-16T23:01:06.843Z,7.30
2022-09-16T23:03:34.400Z,4.60
2022-09-16T23:06:03.182Z,4.70
2022-09-16T23:08:31.541Z,4.03
2022-09-16T23:11:02.129Z,14.23
2022-09-16T23:13:29.731Z,3.00
2022-09-16T23:16:01.228Z,3.03
2022-09-16T23:18:30.573Z,4.70
2022-09-16T23:21:01.862Z,1.60
2022-09-16T23:23:30.036Z,2.27
2022-09-16T23:25:57.530Z,5.47
2022-09-16T23:28:25.118Z,4.07
2022-09-16T23:30:52.524Z,3.87
2022-09-16T23:33:20.093Z,2.37
2022-09-16T23:35:48.481Z,5.47
2022-09-16T23:38:15.981Z,3.20
2022-09-16T23:40:43.365Z,7.17
2022-09-16T23:43:10.844Z,3.30
2022-09-16T23:45:38.676Z,4.57
2022-09-16T23:48:06.168Z,4.67
2022-09-16T23:50:33.746Z,1.80
2022-09-16T23:53:01.126Z,3.57
2022-09-16T23:55:28.600Z,6.33
2022-09-16T23:57:56.016Z,5.73
